Latest Weather Observations for Campania

IDT60901

Issued at 9:01 pm EDT Sunday 24 January 2021 (issued every 10 minutes, with the page automatically refreshed every 10 minutes)

About weather observations | Map of Hobart area stations | Latest observations for Hobart area | Other Formats
Station Details ID: 094212 Name: CAMPANIA (KINCORA) Lat: -42.69 Lon: 147.43 Height: 45.0 m
Data from the previous 72 hours. | See also: Recent months at Campania
Date/Time
EDT
Temp
°C
App
Temp
°C
Dew
Point
°C
Rel
Hum
%
Delta-T
°C
Wind Press
QNH
hPa
Press
MSL
hPa
Rain since
9am
mm
Dir  Spd
km/h
Gust
km/h
Spd
kts
Gust
kts
24/09:00pm 18.4 18.8 15.3 82 1.8 SSW 7 9 4 5 - - 0.0
24/08:30pm 19.3 19.0 15.4 78 2.3 S 11 15 6 8 - - 0.0
24/08:00pm 20.3 19.1 15.1 72 3.1 S 15 20 8 11 - - 0.0
24/07:30pm 21.6 19.7 15.7 69 3.5 SSE 20 26 11 14 - - 0.0
24/07:00pm 21.5 19.3 16.0 71 3.3 S 22 30 12 16 - - 0.0
24/06:30pm 24.0 21.5 15.2 58 5.3 S 22 30 12 16 - - 0.0
24/06:00pm 24.6 21.9 15.5 57 5.5 S 24 30 13 16 - - 0.0
24/05:30pm 25.0 22.0 15.9 57 5.5 S 26 33 14 18 - - 0.0
24/05:00pm 26.2 23.2 15.9 53 6.3 S 26 37 14 20 - - 0.0
24/04:30pm 27.7 24.3 15.7 48 7.4 S 28 33 15 18 - - 0.0
24/04:00pm 28.9 26.1 15.4 44 8.3 S 24 32 13 17 - - 0.0
24/03:30pm 30.2 27.8 14.3 38 9.6 SSE 20 28 11 15 - - 0.0
24/03:00pm 31.6 28.9 7.3 22 13.3 WSW 11 20 6 11 - - 0.0
24/02:30pm 32.1 28.7 9.0 24 13.0 WSW 17 26 9 14 - - 0.0
24/02:00pm 29.8 28.1 8.2 26 11.9 N 7 15 4 8 - - 0.0
24/01:30pm 28.6 26.9 8.3 28 11.1 NNW 7 15 4 8 - - 0.0
24/01:00pm 29.1 27.0 9.8 30 10.8 SW 11 19 6 10 - - 0.0
24/12:30pm 28.0 25.3 10.2 33 10.0 NW 15 22 8 12 - - 0.0
24/12:00pm 26.0 25.9 13.8 47 7.2 ESE 7 13 4 7 - - 0.0
24/11:30am 24.8 24.3 13.7 50 6.5 E 9 13 5 7 - - 0.0
24/11:00am 22.4 22.3 13.2 56 5.3 NNW 6 11 3 6 - - 0.0
24/10:30am 22.1 20.9 12.9 56 5.3 ENE 11 15 6 8 - - 0.0
24/10:00am 21.0 20.7 12.7 59 4.7 NE 6 15 3 8 - - 0.0
24/09:30am 20.1 19.8 12.6 62 4.2 N 6 9 3 5 - - 0.0
24/09:00am 19.4 18.8 12.2 63 4.0 ESE 7 11 4 6 - - 0.0
24/08:30am 18.3 18.0 13.2 72 2.9 E 7 11 4 6 - - 0.0
24/08:00am 17.3 17.2 13.4 78 2.2 E 6 9 3 5 - - 0.0
24/07:30am 13.7 14.3 11.9 89 1.0 CALM 0 6 0 3 - - 0.0
24/07:00am 12.1 11.8 11.3 95 0.4 NNW 4 7 2 4 - - 0.0
24/06:30am 11.5 9.8 11.2 98 0.2 NNE 11 13 6 7 - - 0.0
24/06:00am 11.4 11.3 10.9 97 0.3 N 2 6 1 3 - - 0.0
24/05:30am 11.5 10.2 11.2 98 0.2 NNE 9 13 5 7 - - 0.0
24/05:00am 11.2 10.7 10.7 97 0.3 N 4 6 2 3 - - 0.0
24/04:30am 11.0 10.7 10.2 95 0.4 SSE 2 9 1 5 - - 0.0
24/04:00am 11.9 11.1 11.1 95 0.4 N 6 9 3 5 - - 0.0
24/03:30am 12.3 11.1 11.5 95 0.4 N 9 11 5 6 - - 0.0
24/03:00am 12.1 11.2 11.2 94 0.5 N 7 9 4 5 - - 0.0
24/02:30am 12.5 11.6 11.4 93 0.6 NNE 7 9 4 5 - - 0.0
24/02:00am 13.0 12.3 12.1 94 0.5 N 7 9 4 5 - - 0.0
24/01:30am 13.1 12.3 11.8 92 0.7 N 7 9 4 5 - - 0.0
24/01:00am 13.6 13.1 12.2 91 0.8 N 6 7 3 4 - - 0.0
24/12:30am 13.9 14.2 12.3 90 0.9 N 2 6 1 3 - - 0.0
24/12:00am 14.6 14.6 12.5 87 1.1 W 4 7 2 4 - - 0.0
 
Date/Time
EDT
Temp
°C
App
Temp
°C
Dew
Point
°C
Rel
Hum
%
Delta-T
°C
Wind Press
QNH
hPa
Press
MSL
hPa
Rain since
9am
mm
Dir  Spd
km/h
Gust
km/h
Spd
kts
Gust
kts
23/11:30pm 15.5 16.5 13.2 86 1.3 CALM 0 0 0 0 - - 0.0
23/11:00pm 16.7 17.1 13.8 83 1.6 S 4 7 2 4 - - 0.0
23/10:30pm 17.3 18.6 14.2 82 1.8 CALM 0 0 0 0 - - 0.0
23/10:00pm 18.2 18.3 14.5 79 2.1 S 7 9 4 5 - - 0.0
23/09:30pm 18.5 17.8 14.2 76 2.5 S 11 13 6 7 - - 0.0
23/09:00pm 18.9 18.9 13.7 72 3.0 SE 6 7 3 4 - - 0.0
23/08:30pm 19.5 18.3 12.7 65 3.8 S 11 17 6 9 - - 0.0
23/08:00pm 20.4 18.2 13.4 64 4.0 SSE 17 22 9 12 - - 0.0
23/07:30pm 21.7 17.9 12.5 56 5.2 S 24 32 13 17 - - 0.0
23/07:00pm 22.6 19.9 13.4 56 5.3 SSE 20 30 11 16 - - 0.0
23/06:30pm 24.1 21.2 13.0 50 6.4 SSE 20 30 11 16 - - 0.0
23/06:00pm 25.5 22.1 12.4 44 7.6 SSE 22 28 12 15 - - 0.0
23/05:30pm 29.6 27.6 15.0 41 8.9 SSW 19 26 10 14 - - 0.0
23/05:00pm 27.6 26.4 13.9 43 8.2 W 13 20 7 11 - - 0.0
23/04:30pm 28.7 27.5 14.1 40 8.8 WNW 13 28 7 15 - - 0.0
23/04:00pm 27.2 24.6 12.0 38 8.8 WNW 17 26 9 14 - - 0.0
23/03:30pm 26.9 24.0 12.2 40 8.5 WNW 19 30 10 16 - - 0.0
23/03:00pm 27.7 24.7 12.5 39 8.9 WNW 20 32 11 17 - - 0.0
23/02:30pm 27.3 25.6 11.3 37 9.1 W 11 22 6 12 - - 0.0
23/02:00pm 25.6 22.9 10.2 38 8.6 SW 15 24 8 13 - - 0.0
23/01:30pm 25.3 22.8 9.6 37 8.6 WNW 13 22 7 12 - - 0.0
23/01:00pm 24.6 21.6 9.3 38 8.3 WNW 15 22 8 12 - - 0.0
23/12:30pm 24.5 20.5 8.9 37 8.4 WSW 20 30 11 16 - - 0.0
23/12:00pm 23.4 20.6 7.1 35 8.5 WNW 11 22 6 12 - - 0.0
23/11:30am 22.5 17.6 7.1 37 8.0 NW 22 32 12 17 - - 0.0
23/11:00am 21.9 17.4 7.0 38 7.7 W 20 37 11 20 - - 0.0
23/10:30am 21.3 16.7 6.4 38 7.5 WNW 20 30 11 16 - - 0.0
23/10:00am 20.4 14.6 6.4 40 7.0 NW 26 35 14 19 - - 0.0
23/09:30am 20.3 15.5 7.3 43 6.7 NW 22 41 12 22 - - 0.0
23/09:00am 19.2 14.5 7.6 47 5.9 W 22 35 12 19 - - 0.0
23/08:30am 17.8 12.7 7.5 51 5.2 NW 24 39 13 21 - - 0.0
23/08:00am 17.0 11.8 7.4 53 4.8 NW 24 37 13 20 - - 0.0
23/07:30am 17.0 12.2 7.4 53 4.8 WNW 22 32 12 17 - - 0.0
23/07:00am 16.2 12.3 7.2 55 4.5 NW 17 26 9 14 - - 0.0
23/06:30am 15.6 11.3 7.1 57 4.2 NW 19 24 10 13 - - 0.0
23/06:00am 15.5 11.5 6.8 56 4.3 NW 17 22 9 12 - - 0.0
23/05:30am 15.2 11.5 6.5 56 4.2 NW 15 22 8 12 - - 0.0
23/05:00am 15.3 10.9 6.6 56 4.2 NW 19 24 10 13 - - 0.0
23/04:30am 15.4 10.4 6.4 55 4.4 NW 22 35 12 19 - - 0.0
23/04:00am 15.4 12.2 6.9 57 4.2 NNW 13 20 7 11 - - 0.0
23/03:30am 15.3 12.5 6.8 57 4.2 NNW 11 20 6 11 - - 0.0
23/03:00am 13.9 11.9 7.0 63 3.4 NNE 7 11 4 6 - - 0.0
23/02:30am 14.3 11.1 6.9 61 3.6 N 13 19 7 10 - - 0.0
23/02:00am 14.0 10.8 6.8 62 3.5 N 13 19 7 10 - - 0.0
23/01:30am 14.8 12.0 7.1 60 3.8 N 11 17 6 9 - - 0.0
23/01:00am 14.3 11.9 7.1 62 3.5 NNW 9 15 5 8 - - 0.0
23/12:30am 15.2 12.8 7.2 59 3.9 NNW 9 19 5 10 - - 0.0
23/12:00am 15.4 12.4 7.7 60 3.8 NW 13 17 7 9 - - 0.0
 
Date/Time
EDT
Temp
°C
App
Temp
°C
Dew
Point
°C
Rel
Hum
%
Delta-T
°C
Wind Press
QNH
hPa
Press
MSL
hPa
Rain since
9am
mm
Dir  Spd
km/h
Gust
km/h
Spd
kts
Gust
kts
22/11:30pm 12.9 11.1 7.8 71 2.5 NNW 7 11 4 6 - - 0.0
22/11:00pm 14.6 12.6 6.9 60 3.8 NNW 7 9 4 5 - - 0.0
22/10:30pm 16.5 12.6 6.9 53 4.8 WNW 17 26 9 14 - - 0.0
22/10:00pm 16.9 12.8 6.4 50 5.2 WNW 17 22 9 12 - - 0.0
22/09:30pm 17.0 13.8 6.8 51 5.1 W 13 20 7 11 - - 0.0
22/09:00pm 17.8 15.8 7.0 49 5.4 NW 7 13 4 7 - - 0.0
22/08:30pm 18.4 14.1 7.2 48 5.7 W 19 37 10 20 - - 0.0
22/08:00pm 19.0 14.8 7.4 47 5.9 W 19 32 10 17 - - 0.0
22/07:30pm 19.7 14.9 7.4 45 6.3 W 22 32 12 17 - - 0.0
22/07:00pm 20.4 15.7 7.7 44 6.6 W 22 35 12 19 - - 0.0
22/06:30pm 20.6 15.7 8.3 45 6.4 W 24 39 13 21 - - 0.0
22/06:00pm 21.3 17.2 10.2 49 6.0 W 22 35 12 19 - - 0.0
22/05:30pm 21.2 18.7 11.2 53 5.5 W 15 28 8 15 - - 0.0
22/05:00pm 20.8 17.3 10.9 53 5.4 W 20 37 11 20 - - 0.0
22/04:30pm 20.3 16.3 10.4 53 5.4 W 22 32 12 17 - - 0.0
22/04:00pm 20.4 15.9 10.2 52 5.5 WNW 24 32 13 17 - - 0.0
22/03:30pm 20.5 16.5 10.3 52 5.5 W 22 39 12 21 - - 0.0
22/03:00pm 20.4 15.1 9.9 51 5.6 WSW 28 46 15 25 - - 0.0
22/02:59pm 20.5 15.2 9.7 50 5.8 WSW 28 46 15 25 - - 0.0
22/02:30pm 21.3 17.0 9.2 46 6.5 W 22 39 12 21 - - 0.0
22/02:00pm 21.7 17.3 8.9 44 6.8 WNW 22 33 12 18 - - 0.0
22/01:30pm 21.6 15.9 8.5 43 6.9 WNW 28 41 15 22 - - 0.0
22/01:00pm 21.8 17.7 10.0 47 6.4 WNW 22 35 12 19 - - 0.0
22/12:30pm 22.8 17.5 9.9 44 7.0 WNW 28 37 15 20 - - 0.0
22/12:00pm 21.3 17.5 9.2 46 6.5 NW 19 33 10 18 - - 0.0
22/11:33am 21.5 15.6 9.1 45 6.6 NW 30 48 16 26 - - 0.0
22/11:30am 22.5 16.7 9.6 44 7.0 NW 30 41 16 22 - - 0.0
22/11:00am 22.4 17.3 9.2 43 7.1 W 26 48 14 26 - - 0.0
22/10:51am 22.4 16.7 8.5 41 7.4 W 28 48 15 26 - - 0.0
22/10:30am 22.6 17.6 8.0 39 7.7 WNW 24 35 13 19 - - 0.0
22/10:13am 21.2 15.0 6.3 38 7.5 NW 28 50 15 27 - - 0.0
22/10:00am 21.4 14.6 5.3 35 8.0 NW 30 43 16 23 - - 0.0
22/09:30am 21.9 16.7 5.3 34 8.3 WNW 22 39 12 21 - - 0.0
22/09:06am 20.8 14.2 4.4 34 8.0 WNW 28 48 15 26 - - 0.0
22/09:00am 20.8 15.4 4.4 34 8.0 WNW 22 39 12 21 - - 0.0
22/08:30am 20.4 14.7 4.8 36 7.6 WNW 24 46 13 25 - - 0.0
22/08:25am 20.4 13.9 4.8 36 7.6 WNW 28 46 15 25 - - 0.0
22/08:00am 20.3 15.3 4.4 35 7.7 NW 20 32 11 17 - - 0.0
22/07:30am 17.7 14.1 6.6 48 5.5 N 15 24 8 13 - - 0.0
22/07:00am 17.3 13.7 8.4 56 4.6 N 17 19 9 10 - - 0.0
22/06:30am 16.5 14.6 9.0 61 3.9 NNW 9 15 5 8 - - 0.0
22/06:00am 15.1 13.3 9.5 69 2.9 N 9 13 5 7 - - 0.0
22/05:30am 15.1 13.5 10.1 72 2.6 N 9 13 5 7 - - 0.0
22/05:00am 14.9 13.9 10.3 74 2.4 N 6 7 3 4 - - 0.0
22/04:30am 15.1 13.0 9.9 71 2.7 N 11 17 6 9 - - 0.0
22/04:00am 15.5 12.7 10.1 70 2.8 N 15 19 8 10 - - 0.0
22/03:30am 15.2 13.2 10.2 72 2.6 NNW 11 13 6 7 - - 0.0
22/03:00am 15.0 12.7 10.6 75 2.3 N 13 17 7 9 - - 0.0
22/02:30am 14.3 12.9 10.9 80 1.8 N 9 11 5 6 - - 0.0
22/02:00am 12.5 11.5 11.1 91 0.7 N 7 9 4 5 - - 0.0
22/01:30am 11.6 11.5 10.8 95 0.4 N 2 6 1 3 - - 0.0
22/01:00am 11.2 9.6 10.3 94 0.5 NNW 9 11 5 6 - - 0.0
22/12:30am 11.6 10.5 10.5 93 0.6 N 7 11 4 6 - - 0.0
22/12:00am 11.5 11.6 10.2 92 0.7 CALM 0 4 0 2 - - 0.0
 
Date/Time
EDT
Temp
°C
App
Temp
°C
Dew
Point
°C
Rel
Hum
%
Delta-T
°C
Wind Press
QNH
hPa
Press
MSL
hPa
Rain since
9am
mm
Dir  Spd
km/h
Gust
km/h
Spd
kts
Gust
kts
21/11:30pm 11.6 10.4 10.3 92 0.7 N 7 7 4 4 - - 0.0
21/11:00pm 11.5 11.2 10.1 91 0.7 NNW 2 7 1 4 - - 0.0
21/10:30pm 12.0 10.9 10.7 92 0.7 NNW 7 9 4 5 - - 0.0
21/10:00pm 12.9 12.1 11.1 89 0.9 WNW 6 7 3 4 - - 0.0
21/09:30pm 13.0 11.6 10.9 87 1.1 SSW 9 13 5 7 - - 0.0

Latest Capital City Observations: Canberra | Sydney | Melbourne | Brisbane | Adelaide | Perth | Hobart | Darwin

Other formats

Comma delimited format used in spreadsheet applications
http://www.bom.gov.au/fwo/IDT60901/IDT60901.95972.axf

JavaScript Object Notation format (JSON) in row-major order
http://www.bom.gov.au/fwo/IDT60901/IDT60901.95972.json

Data quality

Most of these data are generated automatically and are frequently updated. Quality checks on data are not normally performed. It is possible for incorrect values to appear. Refer to information at About Latest Weather Observations and please check the disclaimer before using these data.